ADDS TAF Board (Experimental) INFO Settings

IDs: Format: Expanded Condensed

KPHL - Philadelphia Intl, PA, US

Issued at 2336 UTC 05 Mar 2015
Updated at: 0224 UTC 06 Mar 2015
Time0154Z 06/03Z 06/04Z 06/05Z 06/06Z 06/07Z 06/08Z 06/09Z 06/10Z 06/11Z 06/12Z 06/13Z 06/14Z 06/15Z
Type OBS PRVL PRVL PRVL PRVL PRVL PRVL PRVL PRVL PRVL PRVL PRVL PRVL PRVL
VIS 10 >6 >6 >6 >6 >6 >6 >6 >6 >6 >6 >6 >6 >6
CIG 90 100 -- -- -- -- -- -- -- -- -- -- -- --
Cover OVC OVC SKC SKC SKC SKC SKC SKC SKC SKC SKC SKC SKC SKC
FltCat VFR VFR VFR VFR VFR VFR VFR VFR VFR VFR VFR VFR VFR VFR
WX -- VCSH -- -- -- -- -- -- -- -- -- -- -- --
WDir 320 330 320 320 320 320 320 320 320 320 320 320 320 320
WSpd 8 13 10 10 10 10 10 10 10 10 10 10 10 10
WGst -- -- -- -- -- -- -- -- -- -- -- -- -- --
R08/26
XWnd 7 13 9 9 9 9 9 9 9 9 9 9 9 9
HWnd -3 -3 -4 -4 -4 -4 -4 -4 -4 -4 -4 -4 -4 -4
R09/27
XWnd 7 13 9 9 9 9 9 9 9 9 9 9 9 9
HWnd -3 -3 -4 -4 -4 -4 -4 -4 -4 -4 -4 -4 -4 -4
R17/35
XWnd -3 -2 -3 -3 -3 -3 -3 -3 -3 -3 -3 -3 -3 -3
HWnd -8 -13 -9 -9 -9 -9 -9 -9 -9 -9 -9 -9 -9 -9

NOTE: TEMPO conditions in [brackets]. Keep in mind TEMPO conditions might be better (lower impact) than prevailing conditions.

Raw TAF
KPHL 052336Z 0600/0706 33013KT P6SM VCSH SCT045 OVC100
  FM060400 32010KT P6SM SKC
  FM062100 24005KT P6SM SCT200


Raw METAR
KPHL 060154Z 32008KT 10SM SCT060 OVC090 M06/M11 A3037 RMK AO2 PRESRR SLP282 T10561111
KPHL 060054Z 32008KT 10SM OVC100 M06/M11 A3034 RMK AO2 SLP271 T10611106
KPHL 052354Z 34009KT 10SM FEW050 OVC100 M06/M11 A3031 RMK AO2 SNE14 SLP261 P0000 60015 T10611106 11028 21067 53027

METAR Board
Radar Display
Forecast Discussion

TAF Board Legend

Potential Impact
Threat None Slight Moderate High
Visibility (sm) ≥5.1 5.1>X≥3 3>X≥1 <1
Ceiling (100 ft) ≥30.1 30.1>X≥10 10>X≥5 <5
Wind Speed (kt) <10 10≤X<20 20≤X<30 ≥30
Wind Gust (kt) <15 15≤X<25 25≤X<35 ≥35
Weather No Wx Reported VCTS,-TS,-FZRA,SN TS,FZRA +TS,+FZRA,+SN